createdAt,value
2023-05-02T00:02:05.684Z,12.63
2023-05-02T00:04:32.569Z,12.60
2023-05-02T00:06:59.523Z,12.59
2023-05-02T00:09:26.276Z,12.58
2023-05-02T00:11:52.981Z,12.63
2023-05-02T00:14:19.635Z,12.57
2023-05-02T00:16:46.529Z,12.44
2023-05-02T00:19:13.731Z,12.41
2023-05-02T00:21:40.387Z,12.42
2023-05-02T00:24:07.060Z,12.36
2023-05-02T00:26:33.740Z,12.27
2023-05-02T00:29:01.310Z,12.25
2023-05-02T00:31:28.113Z,12.25
2023-05-02T00:33:54.873Z,12.24
2023-05-02T00:36:21.537Z,12.24
2023-05-02T00:38:48.371Z,12.23
2023-05-02T00:41:17.121Z,12.19
2023-05-02T00:43:43.799Z,12.22
2023-05-02T00:46:12.846Z,12.18
2023-05-02T00:48:39.758Z,12.13
2023-05-02T00:51:08.667Z,12.14
2023-05-02T00:53:36.110Z,12.02
2023-05-02T00:56:03.001Z,12.06
2023-05-02T00:58:30.708Z,12.04
2023-05-02T01:01:00.421Z,12.08
2023-05-02T01:03:45.350Z,12.13
2023-05-02T01:06:19.551Z,12.13
2023-05-02T01:08:54.285Z,12.26
2023-05-02T01:11:30.671Z,12.12
2023-05-02T01:13:59.165Z,12.07
2023-05-02T01:16:26.209Z,12.03
2023-05-02T01:18:52.973Z,12.00
2023-05-02T01:21:19.843Z,11.94
2023-05-02T01:24:16.856Z,11.99
2023-05-02T01:26:55.632Z,11.98
2023-05-02T01:29:23.319Z,11.96
2023-05-02T01:31:51.553Z,11.99
2023-05-02T01:34:20.362Z,11.96
2023-05-02T01:36:49.244Z,11.97
2023-05-02T01:39:24.500Z,12.06
2023-05-02T01:41:52.446Z,12.02
2023-05-02T01:44:20.777Z,12.17
2023-05-02T01:46:48.264Z,12.04
2023-05-02T01:49:15.740Z,12.00
2023-05-02T01:51:48.232Z,11.94
2023-05-02T01:54:17.083Z,11.98
2023-05-02T01:56:46.633Z,11.96
2023-05-02T01:59:15.496Z,11.85
2023-05-02T02:01:43.700Z,11.80
2023-05-02T02:04:13.039Z,11.82
2023-05-02T02:06:42.511Z,11.84
2023-05-02T02:09:09.215Z,11.87
2023-05-02T02:11:39.763Z,11.88
2023-05-02T02:14:07.951Z,11.89
2023-05-02T02:16:37.705Z,11.88
2023-05-02T02:19:07.708Z,11.87
2023-05-02T02:21:36.261Z,11.87
2023-05-02T02:24:04.468Z,11.89
2023-05-02T02:26:31.224Z,11.89
2023-05-02T02:28:58.070Z,11.86
2023-05-02T02:31:25.913Z,11.81
2023-05-02T02:33:52.788Z,11.83
2023-05-02T02:36:25.312Z,11.78
2023-05-02T02:39:01.273Z,11.69
2023-05-02T02:41:33.339Z,11.65
2023-05-02T02:44:26.087Z,11.59
2023-05-02T02:47:02.813Z,11.54
2023-05-02T02:49:42.993Z,11.51
2023-05-02T02:52:28.649Z,11.42
2023-05-02T02:55:00.806Z,11.41
2023-05-02T02:57:39.754Z,11.36
2023-05-02T03:00:16.502Z,11.37
2023-05-02T03:02:43.947Z,11.31
2023-05-02T03:05:11.260Z,11.31
2023-05-02T03:07:37.952Z,11.28
2023-05-02T03:10:06.008Z,11.24
2023-05-02T03:12:34.579Z,11.23
2023-05-02T03:15:29.102Z,11.18
2023-05-02T03:17:56.078Z,11.14
2023-05-02T03:20:22.740Z,11.08
2023-05-02T03:22:49.688Z,11.09
2023-05-02T03:25:17.060Z,11.12
2023-05-02T03:27:46.737Z,11.06
2023-05-02T03:30:14.025Z,11.08
2023-05-02T03:32:40.825Z,11.15
2023-05-02T03:35:08.539Z,11.14
2023-05-02T03:37:40.045Z,11.14
2023-05-02T03:40:07.531Z,11.11
2023-05-02T03:42:40.159Z,11.18
2023-05-02T03:45:16.750Z,11.15
2023-05-02T03:47:44.119Z,11.18
2023-05-02T03:50:11.567Z,11.22
2023-05-02T03:52:38.655Z,11.23
2023-05-02T03:55:07.876Z,11.27
2023-05-02T03:57:34.750Z,11.34
2023-05-02T04:00:01.748Z,11.41
2023-05-02T04:02:38.530Z,11.43
2023-05-02T04:05:08.973Z,11.46
2023-05-02T04:07:37.117Z,11.55
2023-05-02T04:10:07.014Z,11.59
2023-05-02T04:12:39.017Z,11.64
2023-05-02T04:15:06.971Z,11.66
2023-05-02T04:17:34.015Z,11.75
2023-05-02T04:20:04.017Z,11.83
2023-05-02T04:22:33.509Z,11.95
2023-05-02T04:25:03.958Z,12.02
2023-05-02T04:27:32.564Z,12.12
2023-05-02T04:29:59.823Z,12.14
2023-05-02T04:32:27.276Z,12.16
2023-05-02T04:34:55.934Z,12.26
2023-05-02T04:37:23.717Z,12.34
2023-05-02T04:39:51.065Z,12.44
2023-05-02T04:42:21.756Z,12.56
2023-05-02T04:44:56.384Z,12.62
2023-05-02T04:47:23.101Z,12.69
2023-05-02T04:49:49.808Z,12.80
2023-05-02T04:52:16.561Z,12.88
2023-05-02T04:54:43.760Z,13.01
2023-05-02T04:57:12.782Z,13.17
2023-05-02T04:59:43.876Z,13.35
2023-05-02T05:02:12.835Z,13.55
2023-05-02T05:04:40.092Z,13.73
2023-05-02T05:07:07.343Z,13.98
2023-05-02T05:09:34.175Z,14.21
2023-05-02T05:12:01.984Z,14.47
2023-05-02T05:14:31.522Z,14.82
2023-05-02T05:16:58.728Z,15.15
2023-05-02T05:19:26.351Z,15.31
2023-05-02T05:21:53.254Z,15.73
2023-05-02T05:24:21.295Z,16.03
2023-05-02T05:26:49.612Z,16.27
2023-05-02T05:29:16.423Z,16.51
2023-05-02T05:31:44.014Z,16.75
2023-05-02T05:34:14.378Z,17.01
2023-05-02T05:36:42.221Z,17.23
2023-05-02T05:39:09.063Z,17.44
2023-05-02T05:41:38.366Z,17.60
2023-05-02T05:44:08.048Z,17.63
2023-05-02T05:46:34.768Z,17.83
2023-05-02T05:49:03.037Z,17.97
2023-05-02T05:51:30.339Z,17.96
2023-05-02T05:53:59.072Z,18.15
2023-05-02T05:56:26.433Z,18.19
2023-05-02T05:58:59.810Z,17.80
2023-05-02T06:01:26.788Z,17.94
2023-05-02T06:03:54.140Z,18.13
2023-05-02T06:06:21.242Z,18.22
2023-05-02T06:08:47.891Z,18.43
2023-05-02T06:11:14.617Z,18.59
2023-05-02T06:13:41.314Z,18.66
2023-05-02T06:16:08.529Z,18.23
2023-05-02T06:18:35.305Z,18.71
2023-05-02T06:21:06.051Z,19.26
2023-05-02T06:23:33.416Z,19.22
2023-05-02T06:26:01.334Z,19.24
2023-05-02T06:28:28.466Z,19.39
2023-05-02T06:30:58.144Z,19.56
2023-05-02T06:33:24.784Z,19.62
2023-05-02T06:35:55.809Z,19.84
2023-05-02T06:38:23.228Z,19.86
2023-05-02T06:40:50.520Z,20.05
2023-05-02T06:43:17.822Z,20.01
2023-05-02T06:45:44.512Z,20.14
2023-05-02T06:48:11.452Z,20.11
2023-05-02T06:50:38.184Z,20.29
2023-05-02T06:53:06.086Z,20.16
2023-05-02T06:55:32.842Z,20.29
2023-05-02T06:57:59.712Z,20.02
2023-05-02T07:00:26.509Z,19.99
2023-05-02T07:02:53.235Z,20.06
2023-05-02T07:05:19.859Z,19.57
2023-05-02T07:07:46.556Z,19.99
2023-05-02T07:10:13.263Z,19.94
2023-05-02T07:12:39.916Z,19.80
2023-05-02T07:15:07.125Z,19.64
2023-05-02T07:17:34.088Z,19.92
2023-05-02T07:20:01.097Z,20.12
2023-05-02T07:22:27.920Z,20.17
2023-05-02T07:24:58.814Z,20.21
2023-05-02T07:27:25.830Z,20.47
2023-05-02T07:29:52.451Z,20.24
2023-05-02T07:32:21.691Z,20.31
2023-05-02T07:34:48.786Z,20.13
2023-05-02T07:37:15.495Z,19.93
2023-05-02T07:39:42.151Z,19.75
2023-05-02T07:42:08.844Z,20.06
2023-05-02T07:44:36.142Z,20.25
2023-05-02T07:47:03.408Z,20.46
2023-05-02T07:49:32.503Z,20.18
2023-05-02T07:51:59.164Z,19.93
2023-05-02T07:54:28.601Z,19.81
2023-05-02T07:56:57.598Z,19.57
2023-05-02T07:59:24.235Z,19.52
2023-05-02T08:01:50.924Z,19.55
2023-05-02T08:04:17.772Z,19.48
2023-05-02T08:06:47.112Z,19.54
2023-05-02T08:09:13.754Z,19.17
2023-05-02T08:11:40.393Z,19.26
2023-05-02T08:14:07.062Z,19.25
2023-05-02T08:16:33.801Z,19.45
2023-05-02T08:19:00.710Z,19.26
2023-05-02T08:21:27.726Z,18.90
2023-05-02T08:23:58.422Z,18.77
2023-05-02T08:26:25.139Z,18.45
2023-05-02T08:28:52.073Z,18.76
2023-05-02T08:31:19.227Z,18.69
2023-05-02T08:33:46.219Z,19.05
2023-05-02T08:36:17.269Z,19.58
2023-05-02T08:38:45.191Z,19.36
2023-05-02T08:41:13.979Z,19.79
2023-05-02T08:43:40.936Z,20.01
2023-05-02T08:46:08.537Z,20.06
2023-05-02T08:48:40.484Z,20.48
2023-05-02T08:51:12.204Z,20.61
2023-05-02T08:53:39.501Z,20.55
2023-05-02T08:56:10.563Z,20.65
2023-05-02T08:58:38.600Z,20.37
2023-05-02T09:01:19.551Z,20.34
2023-05-02T09:03:47.537Z,20.52
2023-05-02T09:06:19.726Z,20.68
2023-05-02T09:08:52.523Z,20.93
2023-05-02T09:11:19.651Z,20.73
2023-05-02T09:13:48.326Z,20.76
2023-05-02T09:16:17.622Z,20.59
2023-05-02T09:18:46.377Z,20.83
2023-05-02T09:21:19.660Z,20.76
2023-05-02T09:23:49.588Z,20.85
2023-05-02T09:26:19.195Z,20.37
2023-05-02T09:28:45.756Z,20.72
2023-05-02T09:31:16.887Z,20.27
2023-05-02T09:33:46.293Z,19.76
2023-05-02T09:36:15.469Z,20.25
2023-05-02T09:38:47.045Z,20.05
2023-05-02T09:41:13.979Z,19.76
2023-05-02T09:43:41.336Z,19.60
2023-05-02T09:46:09.958Z,19.82
2023-05-02T09:48:52.930Z,19.64
2023-05-02T09:51:20.858Z,19.54
2023-05-02T09:53:47.699Z,19.61
2023-05-02T09:56:15.059Z,19.81
2023-05-02T09:58:41.777Z,19.87
2023-05-02T10:01:08.744Z,19.50
2023-05-02T10:03:37.999Z,19.58
2023-05-02T10:06:05.662Z,19.26
2023-05-02T10:08:33.877Z,19.17
2023-05-02T10:11:01.083Z,19.18
2023-05-02T10:13:32.208Z,18.58
2023-05-02T10:16:04.311Z,18.63
2023-05-02T10:18:57.314Z,18.76
2023-05-02T10:21:27.873Z,18.14
2023-05-02T10:23:54.584Z,18.24
2023-05-02T10:26:23.511Z,17.59
2023-05-02T10:28:51.286Z,17.89
2023-05-02T10:31:18.906Z,18.33
2023-05-02T10:33:47.317Z,18.37
2023-05-02T10:36:14.555Z,18.48
2023-05-02T10:38:41.782Z,18.65
2023-05-02T10:41:17.726Z,18.58
2023-05-02T10:43:49.226Z,18.62
2023-05-02T10:46:32.235Z,18.60
2023-05-02T10:49:07.436Z,18.92
2023-05-02T10:51:35.580Z,19.28
2023-05-02T10:54:17.832Z,19.64
2023-05-02T10:57:01.875Z,19.86
2023-05-02T10:59:39.754Z,19.91
2023-05-02T11:02:31.045Z,20.22
2023-05-02T11:05:05.306Z,20.81
2023-05-02T11:07:33.639Z,21.22
2023-05-02T11:10:15.983Z,21.50
2023-05-02T11:12:50.441Z,21.69
2023-05-02T11:15:27.013Z,21.98
2023-05-02T11:18:11.989Z,22.40
2023-05-02T11:20:42.881Z,23.01
2023-05-02T11:23:16.269Z,22.79
2023-05-02T11:25:44.772Z,23.11
2023-05-02T11:28:34.550Z,22.82
2023-05-02T11:31:01.357Z,22.05
2023-05-02T11:33:29.013Z,21.71
2023-05-02T11:35:59.066Z,21.02
2023-05-02T11:38:27.179Z,21.50
2023-05-02T11:40:58.715Z,21.46
2023-05-02T11:43:29.951Z,21.17
2023-05-02T11:45:59.987Z,21.61
2023-05-02T11:48:27.591Z,21.36
2023-05-02T11:50:56.811Z,21.44
2023-05-02T11:53:28.914Z,21.74
2023-05-02T11:56:05.125Z,21.69
2023-05-02T11:58:33.662Z,22.06
2023-05-02T12:01:15.473Z,21.49
2023-05-02T12:03:42.578Z,21.53
2023-05-02T12:06:13.273Z,21.30
2023-05-02T12:08:41.033Z,21.47
2023-05-02T12:11:07.763Z,21.42
2023-05-02T12:13:34.784Z,21.91
2023-05-02T12:16:01.743Z,21.85
2023-05-02T12:18:28.728Z,21.29
2023-05-02T12:20:56.183Z,21.48
2023-05-02T12:23:24.806Z,21.75
2023-05-02T12:25:51.453Z,22.35
2023-05-02T12:28:19.620Z,22.16
2023-05-02T12:30:48.401Z,21.89
2023-05-02T12:33:15.826Z,21.01
2023-05-02T12:35:42.644Z,21.35
2023-05-02T12:38:16.299Z,20.59
2023-05-02T12:40:48.275Z,20.65
2023-05-02T12:43:15.189Z,20.73
2023-05-02T12:45:41.840Z,20.45
2023-05-02T12:48:28.892Z,20.41
2023-05-02T12:50:55.784Z,20.18
2023-05-02T12:53:39.611Z,20.83
2023-05-02T12:56:07.048Z,20.53
2023-05-02T12:58:49.436Z,20.54
2023-05-02T13:01:16.368Z,20.75
2023-05-02T13:03:44.081Z,20.57
2023-05-02T13:06:11.172Z,21.01
2023-05-02T13:08:37.909Z,20.76
2023-05-02T13:11:04.811Z,20.01
2023-05-02T13:13:32.668Z,20.34
2023-05-02T13:15:59.506Z,20.11
2023-05-02T13:18:28.167Z,19.83
2023-05-02T13:20:55.204Z,19.69
2023-05-02T13:23:22.047Z,19.57
2023-05-02T13:25:48.723Z,19.29
2023-05-02T13:28:15.420Z,19.04
2023-05-02T13:30:42.221Z,18.84
2023-05-02T13:33:09.180Z,18.93
2023-05-02T13:35:36.020Z,18.76
2023-05-02T13:38:03.263Z,18.72
2023-05-02T13:40:30.039Z,18.57
2023-05-02T13:42:56.735Z,18.57
2023-05-02T13:45:23.404Z,18.40
2023-05-02T13:47:50.100Z,18.33
2023-05-02T13:50:16.889Z,18.28
2023-05-02T13:52:43.611Z,18.15
2023-05-02T13:55:10.285Z,18.20
2023-05-02T13:57:36.947Z,18.11
2023-05-02T14:00:04.795Z,18.28
2023-05-02T14:02:31.982Z,18.30
2023-05-02T14:04:58.850Z,18.21
2023-05-02T14:07:25.530Z,18.31
2023-05-02T14:09:52.159Z,18.25
2023-05-02T14:12:18.787Z,18.47
2023-05-02T14:14:45.536Z,18.63
2023-05-02T14:17:12.259Z,18.37
2023-05-02T14:19:39.003Z,18.60
2023-05-02T14:22:05.676Z,18.77
2023-05-02T14:24:32.378Z,18.92
2023-05-02T14:26:59.141Z,18.85
2023-05-02T14:29:25.832Z,18.81
2023-05-02T14:31:52.518Z,18.73
2023-05-02T14:34:19.275Z,18.73
2023-05-02T14:36:45.946Z,18.85
2023-05-02T14:39:12.789Z,18.88
2023-05-02T14:41:39.570Z,18.89
2023-05-02T14:44:06.316Z,18.79
2023-05-02T14:46:33.018Z,18.97
2023-05-02T14:48:59.876Z,18.94
2023-05-02T14:51:26.513Z,18.56
2023-05-02T14:53:54.376Z,18.23
2023-05-02T14:56:21.688Z,18.36
2023-05-02T14:58:48.363Z,18.38
2023-05-02T15:01:16.529Z,18.32
2023-05-02T15:04:03.388Z,18.27
2023-05-02T15:06:31.712Z,18.24
2023-05-02T15:08:58.460Z,18.01
2023-05-02T15:11:25.633Z,18.19
2023-05-02T15:13:52.320Z,18.26
2023-05-02T15:16:19.068Z,18.17
2023-05-02T15:18:45.860Z,18.42
2023-05-02T15:21:12.700Z,18.22
2023-05-02T15:23:39.489Z,18.31
2023-05-02T15:26:06.515Z,18.21
2023-05-02T15:28:33.207Z,18.16
2023-05-02T15:30:59.834Z,18.15
2023-05-02T15:33:26.468Z,18.00
2023-05-02T15:35:57.754Z,18.25
2023-05-02T15:38:24.981Z,18.11
2023-05-02T15:40:56.315Z,18.17
2023-05-02T15:43:23.536Z,17.94
2023-05-02T15:45:57.932Z,17.70
2023-05-02T15:48:28.092Z,17.70
2023-05-02T15:50:54.906Z,17.62
2023-05-02T15:53:24.503Z,17.34
2023-05-02T15:55:52.200Z,17.31
2023-05-02T15:58:19.208Z,17.41
2023-05-02T16:00:46.970Z,17.34
2023-05-02T16:03:13.712Z,17.24
2023-05-02T16:05:40.452Z,17.17
2023-05-02T16:08:07.160Z,17.02
2023-05-02T16:10:36.402Z,16.97
2023-05-02T16:13:03.312Z,16.94
2023-05-02T16:15:30.533Z,16.86
2023-05-02T16:17:57.492Z,16.78
2023-05-02T16:20:24.340Z,16.58
2023-05-02T16:22:51.429Z,16.49
2023-05-02T16:25:18.955Z,16.29
2023-05-02T16:27:45.716Z,16.27
2023-05-02T16:30:13.085Z,16.19
2023-05-02T16:32:40.673Z,16.19
2023-05-02T16:35:10.763Z,16.00
2023-05-02T16:37:37.644Z,15.96
2023-05-02T16:40:05.862Z,15.95
2023-05-02T16:42:33.023Z,15.78
2023-05-02T16:44:59.994Z,15.69
2023-05-02T16:47:27.999Z,15.48
2023-05-02T16:49:55.601Z,15.52
2023-05-02T16:52:22.534Z,15.49
2023-05-02T16:54:49.697Z,15.50
2023-05-02T16:57:21.232Z,15.37
2023-05-02T16:59:49.604Z,15.24
2023-05-02T17:02:16.822Z,15.28
2023-05-02T17:04:43.911Z,15.25
2023-05-02T17:07:13.392Z,15.19
2023-05-02T17:09:41.467Z,15.05
2023-05-02T17:12:10.437Z,14.98
2023-05-02T17:14:41.395Z,14.93
2023-05-02T17:17:08.695Z,14.85
2023-05-02T17:19:36.015Z,14.88
2023-05-02T17:22:04.937Z,14.72
2023-05-02T17:24:32.091Z,14.65
2023-05-02T17:26:58.919Z,14.64
2023-05-02T17:29:25.820Z,14.57
2023-05-02T17:31:52.598Z,14.25
2023-05-02T17:34:19.277Z,14.35
2023-05-02T17:36:46.448Z,14.18
2023-05-02T17:39:13.525Z,14.20
2023-05-02T17:41:40.278Z,14.00
2023-05-02T17:44:07.028Z,14.00
2023-05-02T17:46:33.738Z,14.01
2023-05-02T17:49:01.134Z,14.04
2023-05-02T17:51:28.239Z,13.91
2023-05-02T17:53:55.038Z,13.86
2023-05-02T17:56:21.809Z,13.83
2023-05-02T17:58:48.620Z,13.79
2023-05-02T18:01:15.733Z,13.64
2023-05-02T18:03:43.560Z,13.59
2023-05-02T18:06:15.409Z,13.61
2023-05-02T18:08:42.170Z,13.50
2023-05-02T18:11:16.757Z,13.52
2023-05-02T18:13:44.277Z,13.44
2023-05-02T18:16:12.481Z,13.48
2023-05-02T18:18:39.699Z,13.42
2023-05-02T18:21:06.400Z,13.44
2023-05-02T18:23:33.750Z,13.40
2023-05-02T18:26:00.684Z,13.38
2023-05-02T18:28:27.543Z,13.22
2023-05-02T18:30:54.194Z,13.35
2023-05-02T18:33:20.992Z,13.26
2023-05-02T18:35:48.458Z,13.27
2023-05-02T18:38:16.006Z,13.25
2023-05-02T18:40:42.839Z,13.29
2023-05-02T18:43:09.556Z,13.31
2023-05-02T18:45:36.295Z,13.28
2023-05-02T18:48:03.492Z,13.26
2023-05-02T18:50:30.327Z,13.19
2023-05-02T18:52:56.973Z,13.10
2023-05-02T18:55:25.229Z,13.16
2023-05-02T18:57:52.251Z,13.11
2023-05-02T19:00:20.532Z,13.13
2023-05-02T19:02:47.832Z,13.12
2023-05-02T19:05:15.167Z,13.01
2023-05-02T19:07:42.442Z,12.93
2023-05-02T19:10:11.184Z,13.00
2023-05-02T19:12:38.381Z,13.04
2023-05-02T19:15:06.777Z,12.97
2023-05-02T19:17:33.643Z,13.00
2023-05-02T19:20:00.444Z,12.98
2023-05-02T19:22:27.760Z,13.02
2023-05-02T19:24:54.700Z,12.87
2023-05-02T19:27:21.348Z,12.76
2023-05-02T19:29:47.939Z,12.83
2023-05-02T19:32:14.991Z,12.83
2023-05-02T19:34:42.137Z,12.82
2023-05-02T19:37:10.257Z,12.84
2023-05-02T19:39:36.865Z,12.77
2023-05-02T19:42:04.239Z,12.79
2023-05-02T19:44:30.887Z,12.78
2023-05-02T19:46:57.568Z,12.84
2023-05-02T19:49:24.267Z,12.85
2023-05-02T19:51:50.932Z,12.75
2023-05-02T19:54:17.562Z,12.73
2023-05-02T19:56:44.398Z,12.75
2023-05-02T19:59:11.073Z,12.81
2023-05-02T20:01:37.839Z,12.78
2023-05-02T20:04:04.553Z,12.78
2023-05-02T20:06:32.344Z,12.76
2023-05-02T20:08:59.186Z,12.76
2023-05-02T20:11:26.354Z,12.74
2023-05-02T20:13:54.069Z,12.73
2023-05-02T20:16:21.172Z,12.78
2023-05-02T20:18:47.994Z,12.80
2023-05-02T20:21:15.068Z,12.82
2023-05-02T20:23:43.575Z,12.81
2023-05-02T20:26:10.672Z,12.84
2023-05-02T20:28:37.889Z,12.82
2023-05-02T20:31:04.760Z,12.85
2023-05-02T20:33:43.819Z,12.80
2023-05-02T20:36:12.901Z,12.76
2023-05-02T20:38:42.561Z,12.67
2023-05-02T20:41:12.483Z,12.71
2023-05-02T20:43:45.006Z,12.75
2023-05-02T20:46:13.536Z,12.74
2023-05-02T20:48:40.372Z,12.72
2023-05-02T20:51:07.136Z,12.69
2023-05-02T20:53:33.874Z,12.70
2023-05-02T20:56:00.531Z,12.76
2023-05-02T20:58:27.189Z,12.69
2023-05-02T21:00:54.211Z,12.64
2023-05-02T21:03:21.463Z,12.67
2023-05-02T21:05:55.653Z,12.66
2023-05-02T21:08:23.006Z,12.71
2023-05-02T21:10:49.690Z,12.71
2023-05-02T21:13:16.326Z,12.61
2023-05-02T21:15:43.005Z,12.72
2023-05-02T21:18:09.685Z,12.78
2023-05-02T21:20:38.189Z,12.75
2023-05-02T21:23:05.057Z,12.78
2023-05-02T21:25:31.726Z,12.78
2023-05-02T21:27:58.361Z,12.79
2023-05-02T21:30:25.093Z,12.76
2023-05-02T21:32:51.766Z,12.80
2023-05-02T21:35:18.570Z,12.68
2023-05-02T21:37:45.316Z,12.60
2023-05-02T21:40:12.527Z,12.59
2023-05-02T21:42:39.263Z,12.61
2023-05-02T21:45:06.846Z,12.56
2023-05-02T21:47:33.575Z,12.49
2023-05-02T21:50:00.445Z,12.45
2023-05-02T21:52:27.426Z,12.36
2023-05-02T21:54:54.214Z,12.41
2023-05-02T21:57:21.237Z,12.40
2023-05-02T21:59:48.257Z,12.47
2023-05-02T22:02:15.050Z,12.44
2023-05-02T22:04:41.695Z,12.43
2023-05-02T22:07:08.360Z,12.42
2023-05-02T22:09:35.102Z,12.43
2023-05-02T22:12:02.894Z,12.35
2023-05-02T22:14:37.692Z,12.41
2023-05-02T22:17:11.650Z,12.42
2023-05-02T22:19:39.377Z,12.49
2023-05-02T22:22:06.787Z,12.34
2023-05-02T22:24:33.566Z,12.51
2023-05-02T22:27:00.325Z,12.51
2023-05-02T22:29:26.960Z,12.57
2023-05-02T22:31:53.626Z,12.40
2023-05-02T22:34:20.362Z,12.31
2023-05-02T22:36:47.041Z,12.32
2023-05-02T22:39:15.756Z,12.26
2023-05-02T22:41:43.194Z,12.31
2023-05-02T22:44:11.110Z,12.26
2023-05-02T22:46:38.681Z,12.25
2023-05-02T22:49:07.685Z,12.15
2023-05-02T22:51:34.372Z,12.19
2023-05-02T22:54:03.135Z,12.14
2023-05-02T22:56:29.769Z,12.12
2023-05-02T22:58:56.523Z,12.16
2023-05-02T23:01:23.246Z,12.14
2023-05-02T23:03:50.100Z,12.15
2023-05-02T23:06:17.147Z,12.16
2023-05-02T23:08:43.831Z,12.24
2023-05-02T23:11:10.513Z,12.17
2023-05-02T23:13:37.288Z,12.11
2023-05-02T23:16:04.453Z,12.10
2023-05-02T23:18:31.206Z,12.09
2023-05-02T23:20:57.935Z,12.08
2023-05-02T23:23:24.637Z,12.15
2023-05-02T23:25:52.787Z,12.13
2023-05-02T23:28:19.453Z,12.10
2023-05-02T23:30:46.242Z,12.08
2023-05-02T23:33:13.004Z,12.04
2023-05-02T23:35:39.887Z,11.99
2023-05-02T23:38:08.074Z,12.06
2023-05-02T23:40:34.985Z,12.02
2023-05-02T23:43:01.657Z,11.91
2023-05-02T23:45:28.289Z,11.98
2023-05-02T23:47:54.987Z,11.98
2023-05-02T23:50:21.707Z,11.96
2023-05-02T23:52:48.344Z,11.86
2023-05-02T23:55:15.172Z,11.90
2023-05-02T23:57:41.877Z,11.88
